Alma Center, Wisconsin
Current Conditions -  °F | °C
As of 12:55 PM on Friday 31 Oct 2014 (Local Time) from KBCK Reporting Station
Scattered Clouds Scattered Clouds  
Wind Chill: 31°   Ceiling: Unl
Heat Index: 39°   Visibility: 10mi
Dew Point: 19°   Wind: 14mph
Humidity: 43%   Direction: 20°NNE
Pressure: 30.43"   Gusts: 22mph
Location:  44.44°N, 90.91°W
Report Text: KBCK 311755Z AUTO 02012G19KT 10SM SCT043 SCT048 04/M07 A3043 RMK AO2 T00411075 10041 21005
Loading
Personal Weather Stations






























Interactive Weather Map
Tropical Storm Tracking
New forecast layout! Learn more

10-Day Weather Forecast

Advertisements
Track Severe Weather on mobile